createdAt,value
2022-12-26T00:02:57.867Z,95
2022-12-26T00:06:23.063Z,95
2022-12-26T00:09:48.315Z,94
2022-12-26T00:13:37.774Z,94
2022-12-26T00:16:38.918Z,94
2022-12-26T00:20:04.123Z,94
2022-12-26T00:23:29.360Z,94
2022-12-26T00:26:54.642Z,94
2022-12-26T00:30:19.907Z,94
2022-12-26T00:33:45.149Z,94
2022-12-26T00:37:10.384Z,94
2022-12-26T00:40:35.639Z,93
2022-12-26T00:44:00.931Z,94
2022-12-26T00:47:26.243Z,94
2022-12-26T00:50:51.425Z,93
2022-12-26T00:54:16.678Z,93
2022-12-26T00:57:41.961Z,93
2022-12-26T01:01:07.319Z,93
2022-12-26T01:04:32.506Z,93
2022-12-26T01:08:20.790Z,93
2022-12-26T01:11:22.956Z,92
2022-12-26T01:14:48.234Z,92
2022-12-26T01:18:13.500Z,92
2022-12-26T01:21:38.777Z,92
2022-12-26T01:25:03.983Z,92
2022-12-26T01:28:29.308Z,92
2022-12-26T01:31:54.573Z,92
2022-12-26T01:35:19.803Z,92
2022-12-26T01:38:45.139Z,92
2022-12-26T01:42:10.285Z,92
2022-12-26T01:45:35.603Z,92
2022-12-26T01:49:00.844Z,92
2022-12-26T01:52:26.029Z,91
2022-12-26T01:55:51.371Z,91
2022-12-26T01:59:16.635Z,91
2022-12-26T02:02:42.110Z,91
2022-12-26T02:06:07.317Z,91
2022-12-26T02:09:32.617Z,91
2022-12-26T02:12:57.948Z,91
2022-12-26T02:16:23.213Z,91
2022-12-26T02:19:48.488Z,91
2022-12-26T02:23:13.738Z,91
2022-12-26T02:26:39.002Z,91
2022-12-26T02:30:04.348Z,91
2022-12-26T02:33:29.582Z,91
2022-12-26T02:36:54.847Z,91
2022-12-26T02:40:20.154Z,91
2022-12-26T02:43:45.452Z,91
2022-12-26T02:47:10.723Z,91
2022-12-26T02:50:35.922Z,91
2022-12-26T02:54:01.160Z,91
2022-12-26T02:57:26.435Z,92
2022-12-26T03:00:51.726Z,92
2022-12-26T03:04:16.994Z,91
2022-12-26T03:07:42.231Z,91
2022-12-26T03:11:07.509Z,91
2022-12-26T03:14:32.768Z,91
2022-12-26T03:17:58.075Z,91
2022-12-26T03:21:23.378Z,91
2022-12-26T03:24:48.596Z,91
2022-12-26T03:28:14.072Z,91
2022-12-26T03:31:39.111Z,92
2022-12-26T03:35:04.429Z,91
2022-12-26T03:38:29.729Z,91
2022-12-26T03:41:54.990Z,91
2022-12-26T03:45:20.257Z,91
2022-12-26T03:48:45.544Z,91
2022-12-26T03:52:10.878Z,91
2022-12-26T03:55:36.168Z,91
2022-12-26T03:59:01.466Z,91
2022-12-26T04:02:26.827Z,91
2022-12-26T04:05:52.059Z,91
2022-12-26T04:09:17.329Z,92
2022-12-26T04:12:42.638Z,91
2022-12-26T04:16:07.948Z,91
2022-12-26T04:19:33.175Z,91
2022-12-26T04:22:58.424Z,90
2022-12-26T04:26:23.761Z,90
2022-12-26T04:29:49.049Z,91
2022-12-26T04:33:14.340Z,91
2022-12-26T04:36:39.637Z,91
2022-12-26T04:40:04.904Z,91
2022-12-26T04:43:47.783Z,91
2022-12-26T04:46:55.500Z,91
2022-12-26T04:50:20.677Z,91
2022-12-26T04:53:46.460Z,91
2022-12-26T04:57:11.168Z,91
2022-12-26T05:00:36.423Z,91
2022-12-26T05:04:01.873Z,91
2022-12-26T05:07:27.020Z,91
2022-12-26T05:10:52.277Z,91
2022-12-26T05:14:17.530Z,91
2022-12-26T05:17:42.795Z,91
2022-12-26T05:21:08.133Z,91
2022-12-26T05:24:33.364Z,91
2022-12-26T05:27:58.621Z,91
2022-12-26T05:31:23.976Z,91
2022-12-26T05:34:49.196Z,91
2022-12-26T05:38:14.461Z,91
2022-12-26T05:41:39.726Z,91
2022-12-26T05:45:04.981Z,91
2022-12-26T05:48:30.238Z,91
2022-12-26T05:51:55.490Z,92
2022-12-26T05:55:20.758Z,92
2022-12-26T05:58:45.989Z,92
2022-12-26T06:02:11.394Z,92
2022-12-26T06:05:36.533Z,92
2022-12-26T06:09:01.820Z,91
2022-12-26T06:12:27.127Z,91
2022-12-26T06:15:52.421Z,91
2022-12-26T06:19:17.653Z,91
2022-12-26T06:22:42.880Z,91
2022-12-26T06:26:08.177Z,91
2022-12-26T06:29:33.508Z,90
2022-12-26T06:32:58.776Z,90
2022-12-26T06:36:24.042Z,90
2022-12-26T06:39:49.286Z,90
2022-12-26T06:43:14.535Z,90
2022-12-26T06:46:40.072Z,90
2022-12-26T06:50:05.147Z,90
2022-12-26T06:53:30.462Z,90
2022-12-26T06:56:55.785Z,90
2022-12-26T07:00:21.044Z,90
2022-12-26T07:03:51.017Z,90
2022-12-26T07:07:11.717Z,90
2022-12-26T07:10:37.002Z,90
2022-12-26T07:14:02.298Z,90
2022-12-26T07:17:27.560Z,89
2022-12-26T07:20:52.835Z,89
2022-12-26T07:24:18.145Z,89
2022-12-26T07:27:43.391Z,89
2022-12-26T07:31:08.690Z,89
2022-12-26T07:34:33.980Z,89
2022-12-26T07:37:59.297Z,89
2022-12-26T07:41:24.594Z,89
2022-12-26T07:44:49.851Z,89
2022-12-26T07:48:15.175Z,89
2022-12-26T07:51:40.640Z,89
2022-12-26T07:55:06.087Z,89
2022-12-26T07:58:31.340Z,89
2022-12-26T08:01:56.828Z,89
2022-12-26T08:05:21.962Z,89
2022-12-26T08:08:50.985Z,89
2022-12-26T08:12:12.485Z,88
2022-12-26T08:15:37.883Z,89
2022-12-26T08:19:03.183Z,88
2022-12-26T08:22:28.418Z,88
2022-12-26T08:25:53.662Z,89
2022-12-26T08:29:18.962Z,89
2022-12-26T08:32:46.051Z,89
2022-12-26T08:36:09.630Z,90
2022-12-26T08:39:34.919Z,89
2022-12-26T08:43:21.272Z,90
2022-12-26T08:46:26.331Z,90
2022-12-26T08:49:51.598Z,90
2022-12-26T08:53:17.017Z,90
2022-12-26T08:56:42.408Z,90
2022-12-26T09:00:07.716Z,90
2022-12-26T09:03:33.138Z,90
2022-12-26T09:06:58.322Z,90
2022-12-26T09:10:23.753Z,90
2022-12-26T09:13:48.911Z,91
2022-12-26T09:17:14.274Z,91
2022-12-26T09:20:39.553Z,91
2022-12-26T09:24:04.854Z,92
2022-12-26T09:27:30.125Z,91
2022-12-26T09:30:55.528Z,92
2022-12-26T09:34:20.791Z,93
2022-12-26T09:37:46.149Z,93
2022-12-26T09:41:11.481Z,93
2022-12-26T09:44:36.700Z,93
2022-12-26T09:48:01.920Z,93
2022-12-26T09:51:27.122Z,93
2022-12-26T09:54:52.371Z,93
2022-12-26T09:58:17.525Z,93
2022-12-26T10:01:42.828Z,94
2022-12-26T10:05:07.989Z,94
2022-12-26T10:08:33.171Z,94
2022-12-26T10:11:58.487Z,94
2022-12-26T10:15:23.592Z,94
2022-12-26T10:18:48.760Z,93
2022-12-26T10:22:13.964Z,94
2022-12-26T10:25:39.225Z,94
2022-12-26T10:29:04.447Z,93
2022-12-26T10:32:29.624Z,94
2022-12-26T10:35:54.814Z,93
2022-12-26T10:39:20.043Z,93
2022-12-26T10:42:45.272Z,93
2022-12-26T10:46:10.568Z,93
2022-12-26T10:49:35.735Z,93
2022-12-26T10:53:00.951Z,93
2022-12-26T10:56:26.189Z,94
2022-12-26T10:59:51.426Z,93
2022-12-26T11:03:16.706Z,93
2022-12-26T11:06:41.795Z,93
2022-12-26T11:10:07.018Z,93
2022-12-26T11:13:32.206Z,94
2022-12-26T11:16:57.404Z,94
2022-12-26T11:20:22.606Z,94
2022-12-26T11:23:47.770Z,94
2022-12-26T11:27:13.041Z,94
2022-12-26T11:30:38.179Z,94
2022-12-26T11:34:03.384Z,94
2022-12-26T11:37:28.591Z,94
2022-12-26T11:40:53.744Z,94
2022-12-26T11:44:18.939Z,95
2022-12-26T11:47:44.117Z,95
2022-12-26T11:51:09.317Z,95
2022-12-26T11:54:34.513Z,95
2022-12-26T11:57:59.649Z,95
2022-12-26T12:01:24.861Z,95
2022-12-26T12:04:50.045Z,95
2022-12-26T12:08:15.222Z,95
2022-12-26T12:11:40.432Z,95
2022-12-26T12:15:05.625Z,95
2022-12-26T12:18:30.785Z,94
2022-12-26T12:21:55.976Z,95
2022-12-26T12:25:21.175Z,95
2022-12-26T12:28:46.386Z,95
2022-12-26T12:32:11.551Z,94
2022-12-26T12:35:36.734Z,94
2022-12-26T12:39:01.904Z,94
2022-12-26T12:42:27.067Z,94
2022-12-26T12:45:52.341Z,94
2022-12-26T12:49:17.504Z,94
2022-12-26T12:52:42.645Z,93
2022-12-26T12:56:07.823Z,94
2022-12-26T12:59:33.023Z,93
2022-12-26T13:02:58.330Z,93
2022-12-26T13:06:23.381Z,94
2022-12-26T13:09:48.574Z,93
2022-12-26T13:13:13.757Z,93
2022-12-26T13:16:38.971Z,92
2022-12-26T13:20:04.110Z,93
2022-12-26T13:23:29.262Z,93
2022-12-26T13:26:54.442Z,92
2022-12-26T13:30:19.637Z,92
2022-12-26T13:33:44.809Z,92
2022-12-26T13:37:10.032Z,92
2022-12-26T13:40:35.199Z,93
2022-12-26T13:44:00.402Z,92
2022-12-26T13:47:25.566Z,93
2022-12-26T13:50:55.519Z,93
2022-12-26T13:54:15.945Z,93
2022-12-26T13:57:41.079Z,93
2022-12-26T14:01:06.353Z,93
2022-12-26T14:04:31.485Z,93
2022-12-26T14:07:56.657Z,93
2022-12-26T14:11:21.895Z,93
2022-12-26T14:14:52.465Z,93
2022-12-26T14:18:12.813Z,93
2022-12-26T14:21:37.972Z,93
2022-12-26T14:25:03.149Z,92
2022-12-26T14:28:28.338Z,92
2022-12-26T15:04:21.945Z,92
2022-12-26T15:08:24.119Z,92
2022-12-26T15:11:49.278Z,91
2022-12-26T15:15:15.185Z,90
2022-12-26T15:18:43.059Z,91
2022-12-26T15:22:05.858Z,91
2022-12-26T15:25:31.139Z,91
2022-12-26T15:28:56.349Z,91
2022-12-26T15:32:21.711Z,91
2022-12-26T15:35:46.949Z,91
2022-12-26T15:39:12.343Z,92
2022-12-26T15:42:37.526Z,92
2022-12-26T15:46:02.857Z,92
2022-12-26T15:49:28.123Z,92
2022-12-26T15:52:53.353Z,92
2022-12-26T15:56:18.604Z,93
2022-12-26T15:59:43.778Z,93
2022-12-26T16:03:09.183Z,93
2022-12-26T16:06:34.722Z,94
2022-12-26T16:10:00.282Z,93
2022-12-26T16:13:25.760Z,94
2022-12-26T16:16:51.260Z,93
2022-12-26T16:20:18.782Z,89
2022-12-26T16:23:41.744Z,91
2022-12-26T16:27:06.970Z,93
2022-12-26T16:30:32.333Z,92
2022-12-26T16:33:57.776Z,92
2022-12-26T16:37:23.035Z,92
2022-12-26T16:40:48.230Z,92
2022-12-26T16:44:13.379Z,92
2022-12-26T16:47:38.627Z,92
2022-12-26T16:51:03.677Z,92
2022-12-26T16:54:29.532Z,93
2022-12-26T16:57:55.669Z,92
2022-12-26T17:01:21.201Z,91
2022-12-26T17:04:46.540Z,92
2022-12-26T17:08:12.010Z,91
2022-12-26T17:11:37.606Z,91
2022-12-26T17:15:02.804Z,90
2022-12-26T17:18:27.969Z,90
2022-12-26T17:21:53.163Z,90
2022-12-26T17:25:18.384Z,90
2022-12-26T17:28:43.566Z,90
2022-12-26T17:32:08.799Z,91
2022-12-26T17:36:02.877Z,90
2022-12-26T17:38:59.255Z,90
2022-12-26T17:42:24.435Z,91
2022-12-26T17:45:49.654Z,91
2022-12-26T17:49:15.164Z,91
2022-12-26T17:52:40.372Z,92
2022-12-26T17:56:05.598Z,92
2022-12-26T17:59:30.757Z,92
2022-12-26T18:02:56.124Z,92
2022-12-26T18:06:21.209Z,92
2022-12-26T18:09:46.643Z,92
2022-12-26T18:13:12.172Z,92
2022-12-26T18:16:37.488Z,92
2022-12-26T18:20:02.754Z,91
2022-12-26T18:23:27.958Z,90
2022-12-26T18:26:53.202Z,90
2022-12-26T18:30:18.397Z,91
2022-12-26T18:33:43.542Z,91
2022-12-26T18:37:08.767Z,91
2022-12-26T18:40:33.997Z,91
2022-12-26T18:43:59.189Z,91
2022-12-26T18:47:24.401Z,91
2022-12-26T18:50:49.545Z,92
2022-12-26T18:54:14.715Z,92
2022-12-26T18:57:39.915Z,92
2022-12-26T19:01:05.196Z,92
2022-12-26T19:04:30.376Z,92
2022-12-26T19:07:55.485Z,92
2022-12-26T19:11:20.658Z,92
2022-12-26T19:14:45.849Z,92
2022-12-26T19:18:11.022Z,92
2022-12-26T19:21:36.231Z,92
2022-12-26T19:25:01.480Z,92
2022-12-26T19:28:26.640Z,93
2022-12-26T19:31:51.893Z,91
2022-12-26T19:35:16.989Z,90
2022-12-26T19:38:42.264Z,90
2022-12-26T19:42:07.372Z,90
2022-12-26T19:45:32.618Z,89
2022-12-26T19:48:57.735Z,90
2022-12-26T19:52:22.917Z,89
2022-12-26T19:55:48.147Z,89
2022-12-26T19:59:13.296Z,89
2022-12-26T20:02:38.633Z,89
2022-12-26T20:06:03.688Z,88
2022-12-26T20:09:28.873Z,88
2022-12-26T20:12:54.072Z,89
2022-12-26T20:16:46.310Z,89
2022-12-26T20:19:44.471Z,89
2022-12-26T20:23:09.618Z,89
2022-12-26T20:26:34.798Z,88
2022-12-26T20:29:59.988Z,89
2022-12-26T20:33:25.142Z,89
2022-12-26T20:36:50.337Z,89
2022-12-26T20:40:15.507Z,90
2022-12-26T20:43:40.673Z,90
2022-12-26T20:47:05.904Z,90
2022-12-26T20:50:31.048Z,90
2022-12-26T20:53:56.222Z,90
2022-12-26T20:57:21.426Z,89
2022-12-26T21:00:46.617Z,91
2022-12-26T21:04:11.821Z,91
2022-12-26T21:07:36.956Z,91
2022-12-26T21:11:02.148Z,91
2022-12-26T21:14:27.336Z,90
2022-12-26T21:17:52.535Z,90
2022-12-26T21:21:17.734Z,91
2022-12-26T21:24:42.947Z,90
2022-12-26T21:28:08.112Z,89
2022-12-26T21:31:33.282Z,90
2022-12-26T21:34:58.437Z,90
2022-12-26T21:38:23.672Z,89
2022-12-26T21:41:48.857Z,90
2022-12-26T21:45:14.033Z,90
2022-12-26T21:48:39.217Z,90
2022-12-26T21:52:04.414Z,90
2022-12-26T21:55:29.607Z,90
2022-12-26T21:58:54.766Z,90
2022-12-26T22:02:20.089Z,90
2022-12-26T22:05:45.160Z,90
2022-12-26T22:09:10.349Z,90
2022-12-26T22:12:35.560Z,91
2022-12-26T22:16:00.764Z,91
2022-12-26T22:19:25.901Z,91
2022-12-26T22:22:51.108Z,91
2022-12-26T22:26:16.364Z,90
2022-12-26T22:29:41.549Z,90
2022-12-26T22:33:06.708Z,90
2022-12-26T22:36:31.921Z,89
2022-12-26T22:39:57.099Z,89
2022-12-26T22:43:22.268Z,90
2022-12-26T22:46:47.487Z,90
2022-12-26T22:50:12.624Z,90
2022-12-26T22:53:37.810Z,91
2022-12-26T22:57:03.035Z,88
2022-12-26T23:00:28.352Z,87
2022-12-26T23:03:53.627Z,87
2022-12-26T23:07:18.732Z,87
2022-12-26T23:10:43.907Z,87
2022-12-26T23:14:09.095Z,87
2022-12-26T23:17:34.285Z,85
2022-12-26T23:20:59.491Z,85
2022-12-26T23:24:24.639Z,86
2022-12-26T23:27:49.832Z,86
2022-12-26T23:31:15.022Z,86
2022-12-26T23:34:40.183Z,86
2022-12-26T23:38:05.394Z,87
2022-12-26T23:41:30.595Z,87
2022-12-26T23:44:55.795Z,87
2022-12-26T23:48:20.971Z,87
2022-12-26T23:51:46.134Z,88
2022-12-26T23:55:11.375Z,88
2022-12-26T23:58:36.527Z,87
